createdAt,value
2019-05-05T00:02:47.623Z,99.90
2019-05-05T00:05:26.740Z,99.90
2019-05-05T00:07:59.198Z,99.90
2019-05-05T00:10:39.057Z,99.90
2019-05-05T00:13:20.931Z,99.90
2019-05-05T00:16:20.027Z,99.90
2019-05-05T00:18:54.295Z,99.90
2019-05-05T00:21:26.348Z,99.90
2019-05-05T00:23:58.574Z,99.90
2019-05-05T00:26:31.291Z,99.90
2019-05-05T00:29:04.353Z,99.90
2019-05-05T00:31:37.343Z,99.90
2019-05-05T00:34:09.728Z,99.90
2019-05-05T00:36:41.777Z,99.90
2019-05-05T00:39:15.070Z,99.90
2019-05-05T00:41:47.181Z,99.90
2019-05-05T00:44:19.436Z,99.90
2019-05-05T00:47:16.058Z,99.90
2019-05-05T00:49:50.170Z,99.90
2019-05-05T00:52:22.134Z,99.90
2019-05-05T00:54:55.575Z,99.90
2019-05-05T00:57:27.689Z,99.90
2019-05-05T01:00:00.823Z,99.90
2019-05-05T01:02:54.190Z,99.90
2019-05-05T01:05:34.407Z,99.90
2019-05-05T01:08:09.757Z,99.90
2019-05-05T01:10:44.301Z,99.90
2019-05-05T01:13:16.388Z,99.90
2019-05-05T01:15:48.871Z,99.90
2019-05-05T01:18:21.334Z,99.90
2019-05-05T01:20:55.073Z,99.90
2019-05-05T01:23:27.234Z,99.90
2019-05-05T01:25:59.558Z,99.90
2019-05-05T01:28:31.592Z,99.90
2019-05-05T01:31:06.983Z,99.90
2019-05-05T01:34:00.971Z,99.90
2019-05-05T01:36:34.520Z,99.90
2019-05-05T01:39:41.418Z,99.90
2019-05-05T01:42:15.088Z,99.90
2019-05-05T01:44:47.328Z,99.90
2019-05-05T01:47:19.242Z,99.90
2019-05-05T01:49:51.632Z,99.90
2019-05-05T01:52:25.427Z,99.90
2019-05-05T01:54:57.556Z,99.90
2019-05-05T01:57:30.073Z,99.90
2019-05-05T02:00:04.135Z,99.90
2019-05-05T02:02:35.855Z,99.90
2019-05-05T02:05:08.675Z,99.90
2019-05-05T02:07:41.342Z,99.90
2019-05-05T02:10:15.218Z,99.90
2019-05-05T02:12:47.824Z,99.90
2019-05-05T02:15:19.923Z,99.90
2019-05-05T02:17:52.552Z,99.90
2019-05-05T02:20:51.237Z,99.90
2019-05-05T02:23:24.547Z,99.90
2019-05-05T02:25:57.366Z,99.90
2019-05-05T02:28:34.772Z,99.90
2019-05-05T02:31:28.523Z,99.90
2019-05-05T02:34:00.758Z,99.90
2019-05-05T02:36:35.391Z,99.90
2019-05-05T02:39:11.263Z,99.90
2019-05-05T02:41:45.341Z,99.90
2019-05-05T02:44:19.129Z,99.90
2019-05-05T02:47:01.340Z,99.90
2019-05-05T02:49:35.260Z,99.90
2019-05-05T02:52:07.931Z,99.90
2019-05-05T02:54:41.355Z,99.90
2019-05-05T02:57:15.019Z,99.90
2019-05-05T02:59:54.017Z,99.90
2019-05-05T03:02:29.034Z,99.90
2019-05-05T03:05:01.541Z,99.90
2019-05-05T03:07:36.310Z,99.90
2019-05-05T03:10:09.062Z,99.90
2019-05-05T03:12:43.912Z,99.90
2019-05-05T03:15:28.657Z,99.90
2019-05-05T03:18:00.810Z,99.90
2019-05-05T03:20:34.353Z,99.90
2019-05-05T03:23:07.313Z,99.90
2019-05-05T03:25:40.360Z,99.90
2019-05-05T03:28:13.795Z,99.90
2019-05-05T03:30:47.103Z,99.90
2019-05-05T03:33:24.820Z,99.90
2019-05-05T03:35:55.200Z,99.90
2019-05-05T03:38:27.687Z,99.90
2019-05-05T03:41:03.583Z,99.90
2019-05-05T03:43:37.293Z,99.90
2019-05-05T03:46:10.078Z,99.90
2019-05-05T03:48:43.807Z,99.90
2019-05-05T03:51:20.909Z,99.90
2019-05-05T03:53:50.076Z,99.90
2019-05-05T03:56:24.044Z,99.90
2019-05-05T03:58:58.301Z,99.90
2019-05-05T04:01:44.146Z,99.90
2019-05-05T04:04:24.452Z,99.90
2019-05-05T04:06:56.992Z,99.90
2019-05-05T04:09:29.623Z,99.90
2019-05-05T04:12:01.566Z,99.90
2019-05-05T04:14:35.052Z,99.90
2019-05-05T04:17:24.595Z,99.90
2019-05-05T04:19:58.196Z,99.90
2019-05-05T04:22:34.170Z,99.90
2019-05-05T04:25:06.657Z,99.90
2019-05-05T04:27:38.738Z,99.90
2019-05-05T04:30:11.535Z,99.90
2019-05-05T04:32:44.027Z,99.90
2019-05-05T04:35:16.229Z,99.90
2019-05-05T04:37:48.616Z,99.90
2019-05-05T04:40:21.012Z,99.90
2019-05-05T04:42:54.635Z,99.90
2019-05-05T04:45:27.051Z,99.90
2019-05-05T04:48:09.170Z,99.90
2019-05-05T04:51:05.821Z,99.90
2019-05-05T04:53:55.265Z,99.90
2019-05-05T04:56:29.825Z,99.90
2019-05-05T04:59:00.892Z,99.90
2019-05-05T05:01:33.533Z,99.90
2019-05-05T05:04:19.416Z,99.90
2019-05-05T05:06:54.204Z,99.90
2019-05-05T05:09:27.026Z,99.90
2019-05-05T05:11:59.093Z,99.90
2019-05-05T05:14:33.743Z,99.90
2019-05-05T05:17:09.047Z,99.90
2019-05-05T05:19:41.006Z,99.90
2019-05-05T05:22:13.665Z,99.90
2019-05-05T05:24:46.124Z,99.90
2019-05-05T05:27:18.088Z,99.90
2019-05-05T05:29:50.043Z,99.90
2019-05-05T05:32:21.991Z,99.90
2019-05-05T05:34:54.450Z,99.90
2019-05-05T05:37:26.813Z,99.90
2019-05-05T05:40:08.971Z,99.90
2019-05-05T05:42:40.931Z,99.90
2019-05-05T05:45:43.782Z,99.90
2019-05-05T05:48:28.244Z,99.90
2019-05-05T05:51:04.203Z,99.90
2019-05-05T05:53:36.204Z,99.90
2019-05-05T05:56:08.157Z,99.90
2019-05-05T05:58:40.111Z,99.90
2019-05-05T06:01:12.064Z,99.90
2019-05-05T06:03:44.878Z,99.90
2019-05-05T06:06:16.825Z,99.90
2019-05-05T06:08:48.782Z,99.90
2019-05-05T06:11:21.171Z,99.90
2019-05-05T06:13:54.486Z,99.90
2019-05-05T06:16:26.507Z,99.90
2019-05-05T06:18:58.461Z,99.90
2019-05-05T06:21:30.738Z,99.90
2019-05-05T06:24:04.544Z,99.90
2019-05-05T06:26:39.630Z,99.90
2019-05-05T06:29:11.998Z,99.90
2019-05-05T06:31:44.759Z,99.90
2019-05-05T06:34:16.872Z,99.90
2019-05-05T06:36:48.830Z,99.90
2019-05-05T06:39:21.213Z,99.90
2019-05-05T06:42:10.425Z,99.90
2019-05-05T06:44:46.107Z,99.90
2019-05-05T06:47:20.792Z,99.90
2019-05-05T06:49:54.215Z,99.90
2019-05-05T06:52:26.181Z,99.90
2019-05-05T06:54:58.462Z,99.90
2019-05-05T06:57:30.411Z,99.90
2019-05-05T07:00:03.649Z,99.90
2019-05-05T07:02:36.120Z,99.90
2019-05-05T07:05:08.186Z,99.90
2019-05-05T07:07:40.139Z,99.90
2019-05-05T07:10:14.094Z,99.90
2019-05-05T07:12:46.295Z,99.90
2019-05-05T07:15:19.332Z,99.90
2019-05-05T07:17:53.475Z,99.90
2019-05-05T07:20:25.240Z,99.90
2019-05-05T07:23:02.075Z,99.90
2019-05-05T07:25:40.662Z,99.90
2019-05-05T07:28:04.466Z,99.90
2019-05-05T07:30:37.399Z,99.90
2019-05-05T07:33:09.733Z,99.90
2019-05-05T07:35:59.397Z,99.90
2019-05-05T07:38:26.833Z,99.90
2019-05-05T07:40:59.128Z,99.90
2019-05-05T07:43:31.051Z,99.90
2019-05-05T07:46:04.438Z,99.90
2019-05-05T07:48:37.450Z,99.90
2019-05-05T07:51:09.823Z,99.80
2019-05-05T07:53:44.047Z,99.60
2019-05-05T07:56:15.945Z,99.90
2019-05-05T07:58:48.270Z,99.90
2019-05-05T08:01:20.761Z,99.90
2019-05-05T08:03:53.818Z,99.40
2019-05-05T08:06:26.760Z,99.90
2019-05-05T08:08:58.674Z,99.50
2019-05-05T08:11:30.931Z,99.30
2019-05-05T08:14:04.120Z,99.00
2019-05-05T08:16:54.986Z,98.70
2019-05-05T08:19:38.793Z,98.30
2019-05-05T08:22:11.585Z,98.80
2019-05-05T08:25:05.824Z,98.70
2019-05-05T08:27:59.740Z,98.90
2019-05-05T08:30:44.106Z,98.50
2019-05-05T08:33:17.200Z,99.00
2019-05-05T08:35:49.145Z,99.10
2019-05-05T08:38:21.519Z,98.60
2019-05-05T08:40:54.460Z,99.10
2019-05-05T08:43:26.419Z,99.20
2019-05-05T08:45:59.223Z,99.50
2019-05-05T08:48:34.081Z,99.50
2019-05-05T08:51:06.439Z,98.60
2019-05-05T08:53:44.747Z,98.40
2019-05-05T08:56:14.446Z,98.50
2019-05-05T08:58:45.738Z,98.40
2019-05-05T09:01:18.003Z,98.60
2019-05-05T09:03:50.695Z,99.10
2019-05-05T09:06:24.214Z,99.00
2019-05-05T09:08:56.166Z,99.00
2019-05-05T09:11:28.563Z,98.90
2019-05-05T09:14:00.884Z,98.70
2019-05-05T09:16:33.727Z,98.30
2019-05-05T09:19:11.726Z,97.90
2019-05-05T09:21:44.732Z,97.80
2019-05-05T09:24:36.049Z,97.40
2019-05-05T09:27:14.351Z,97.40
2019-05-05T09:29:46.756Z,96.80
2019-05-05T09:32:19.048Z,97.10
2019-05-05T09:34:51.418Z,97.10
2019-05-05T09:37:24.677Z,97.30
2019-05-05T09:39:57.434Z,96.60
2019-05-05T09:42:29.451Z,97.10
2019-05-05T09:45:02.021Z,95.80
2019-05-05T09:47:34.518Z,95.80
2019-05-05T09:50:07.340Z,94.80
2019-05-05T09:52:40.425Z,94.70
2019-05-05T09:55:13.815Z,94.40
2019-05-05T09:57:46.239Z,93.50
2019-05-05T10:00:18.385Z,94.00
2019-05-05T10:02:50.318Z,92.70
2019-05-05T10:05:25.873Z,93.60
2019-05-05T10:07:59.708Z,92.30
2019-05-05T10:10:33.789Z,92.70
2019-05-05T10:13:08.308Z,92.50
2019-05-05T10:15:45.133Z,92.80
2019-05-05T10:18:25.560Z,93.30
2019-05-05T10:20:58.123Z,92.30
2019-05-05T10:23:33.682Z,92.00
2019-05-05T10:26:08.916Z,92.90
2019-05-05T10:28:41.422Z,91.10
2019-05-05T10:31:13.888Z,90.30
2019-05-05T10:33:53.835Z,90.30
2019-05-05T10:36:26.180Z,91.10
2019-05-05T10:39:04.437Z,90.30
2019-05-05T10:41:38.472Z,88.80
2019-05-05T10:44:11.698Z,85.60
2019-05-05T10:46:44.262Z,86.70
2019-05-05T10:49:17.472Z,82.50
2019-05-05T10:51:50.001Z,83.20
2019-05-05T10:54:23.743Z,83.10
2019-05-05T10:56:57.705Z,81.10
2019-05-05T10:59:34.454Z,84.00
2019-05-05T11:02:06.890Z,83.10
2019-05-05T11:04:39.360Z,83.70
2019-05-05T11:07:14.566Z,81.80
2019-05-05T11:09:46.994Z,81.90
2019-05-05T11:12:19.479Z,84.10
2019-05-05T11:14:54.483Z,86.40
2019-05-05T11:17:27.354Z,89.00
2019-05-05T11:19:59.559Z,90.60
2019-05-05T11:22:31.515Z,90.80
2019-05-05T11:25:05.092Z,91.00
2019-05-05T11:27:37.527Z,91.80
2019-05-05T11:30:20.980Z,91.70
2019-05-05T11:33:11.195Z,91.30
2019-05-05T11:35:50.192Z,92.10
2019-05-05T11:38:24.713Z,92.00
2019-05-05T11:40:58.104Z,91.50
2019-05-05T11:43:30.388Z,90.50
2019-05-05T11:46:02.348Z,90.20
2019-05-05T11:48:34.517Z,91.20
2019-05-05T11:51:07.390Z,90.60
2019-05-05T11:53:39.672Z,90.30
2019-05-05T11:56:14.330Z,90.00
2019-05-05T11:58:45.938Z,90.80
2019-05-05T12:01:19.273Z,90.60
2019-05-05T12:03:53.468Z,90.00
2019-05-05T12:06:25.218Z,89.70
2019-05-05T12:08:58.733Z,87.20
2019-05-05T12:11:30.983Z,90.10
2019-05-05T12:14:05.595Z,88.40
2019-05-05T12:16:37.714Z,87.00
2019-05-05T12:19:13.694Z,86.50
2019-05-05T12:21:46.705Z,87.70
2019-05-05T12:24:24.804Z,83.20
2019-05-05T12:27:15.894Z,78.80
2019-05-05T12:30:07.218Z,76.30
2019-05-05T12:32:39.664Z,78.60
2019-05-05T12:35:12.025Z,73.10
2019-05-05T12:37:44.566Z,65.80
2019-05-05T12:40:16.962Z,67.50
2019-05-05T12:42:49.072Z,71.90
2019-05-05T12:45:24.947Z,69.70
2019-05-05T12:48:18.585Z,71.60
2019-05-05T12:50:51.052Z,71.50
2019-05-05T12:53:23.793Z,69.20
2019-05-05T12:55:55.973Z,69.20
2019-05-05T12:58:29.211Z,73.90
2019-05-05T13:01:15.437Z,72.00
2019-05-05T13:03:47.957Z,64.40
2019-05-05T13:06:20.113Z,67.50
2019-05-05T13:08:52.728Z,71.10
2019-05-05T13:11:25.579Z,70.10
2019-05-05T13:14:00.733Z,65.90
2019-05-05T13:16:33.298Z,69.30
2019-05-05T13:19:11.648Z,72.40
2019-05-05T13:22:08.498Z,71.20
2019-05-05T13:24:55.909Z,76.20
2019-05-05T13:27:34.098Z,78.70
2019-05-05T13:30:06.670Z,78.30
2019-05-05T13:32:39.104Z,78.90
2019-05-05T13:35:11.589Z,78.80
2019-05-05T13:37:44.424Z,76.20
2019-05-05T13:40:17.640Z,75.70
2019-05-05T13:42:50.201Z,75.80
2019-05-05T13:45:54.069Z,76.20
2019-05-05T13:48:26.826Z,74.90
2019-05-05T13:51:01.538Z,71.00
2019-05-05T13:53:34.330Z,72.80
2019-05-05T13:56:12.114Z,74.20
2019-05-05T13:58:43.700Z,73.50
2019-05-05T14:01:16.981Z,75.20
2019-05-05T14:03:54.145Z,75.90
2019-05-05T14:06:26.844Z,78.80
2019-05-05T14:08:59.495Z,80.00
2019-05-05T14:11:33.846Z,81.60
2019-05-05T14:14:06.033Z,83.90
2019-05-05T14:16:39.331Z,83.00
2019-05-05T14:19:14.666Z,80.70
2019-05-05T14:21:47.359Z,80.20
2019-05-05T14:24:35.633Z,79.80
2019-05-05T14:27:08.117Z,79.20
2019-05-05T14:29:56.449Z,79.90
2019-05-05T14:32:32.003Z,81.70
2019-05-05T14:35:22.898Z,78.90
2019-05-05T14:37:58.284Z,79.70
2019-05-05T14:40:30.523Z,81.20
2019-05-05T14:43:04.474Z,81.40
2019-05-05T14:45:36.663Z,82.60
2019-05-05T14:48:08.756Z,80.00
2019-05-05T14:50:43.731Z,81.40
2019-05-05T14:53:15.341Z,80.40
2019-05-05T14:55:47.805Z,79.40
2019-05-05T14:58:19.887Z,76.70
2019-05-05T15:00:52.345Z,72.30
2019-05-05T15:03:26.749Z,73.70
2019-05-05T15:06:21.603Z,75.90
2019-05-05T15:09:11.457Z,80.70
2019-05-05T15:12:03.744Z,78.20
2019-05-05T15:14:36.586Z,80.10
2019-05-05T15:17:08.988Z,81.70
2019-05-05T15:19:43.592Z,80.70
2019-05-05T15:22:16.090Z,76.90
2019-05-05T15:24:48.200Z,78.80
2019-05-05T15:27:21.311Z,76.50
2019-05-05T15:29:54.367Z,75.50
2019-05-05T15:32:26.481Z,71.90
2019-05-05T15:35:03.832Z,74.50
2019-05-05T15:37:35.261Z,75.00
2019-05-05T15:40:08.441Z,71.80
2019-05-05T15:42:41.029Z,70.20
2019-05-05T15:45:14.286Z,73.50
2019-05-05T15:47:46.823Z,74.60
2019-05-05T15:50:19.993Z,75.30
2019-05-05T15:52:52.111Z,73.00
2019-05-05T15:55:24.584Z,73.00
2019-05-05T15:57:57.386Z,73.20
2019-05-05T16:00:30.149Z,75.20
2019-05-05T16:03:04.464Z,76.00
2019-05-05T16:05:37.361Z,74.20
2019-05-05T16:08:10.398Z,74.30
2019-05-05T16:10:46.208Z,73.50
2019-05-05T16:13:16.625Z,74.20
2019-05-05T16:16:14.655Z,74.50
2019-05-05T16:19:05.804Z,72.80
2019-05-05T16:21:47.971Z,71.70
2019-05-05T16:24:36.461Z,73.20
2019-05-05T16:27:21.205Z,73.50
2019-05-05T16:29:44.175Z,72.10
2019-05-05T16:32:21.623Z,71.70
2019-05-05T16:34:54.736Z,72.60
2019-05-05T16:37:25.787Z,74.20
2019-05-05T16:39:58.067Z,75.20
2019-05-05T16:42:30.735Z,75.10
2019-05-05T16:45:04.659Z,76.50
2019-05-05T16:47:38.007Z,78.60
2019-05-05T16:50:20.014Z,78.90
2019-05-05T16:53:01.130Z,79.60
2019-05-05T16:55:54.727Z,81.20
2019-05-05T16:58:26.638Z,81.40
2019-05-05T17:00:59.011Z,81.40
2019-05-05T17:03:31.253Z,84.40
2019-05-05T17:06:03.787Z,84.30
2019-05-05T17:08:36.098Z,83.00
2019-05-05T17:11:08.915Z,83.80
2019-05-05T17:14:06.125Z,83.70
2019-05-05T17:16:59.123Z,80.70
2019-05-05T17:19:48.037Z,82.40
2019-05-05T17:22:48.679Z,83.30
2019-05-05T17:25:21.546Z,84.80
2019-05-05T17:27:54.783Z,87.30
2019-05-05T17:30:27.250Z,87.60
2019-05-05T17:32:59.339Z,85.40
2019-05-05T17:35:33.594Z,84.00
2019-05-05T17:38:10.507Z,85.10
2019-05-05T17:40:59.937Z,83.90
2019-05-05T17:43:46.713Z,84.90
2019-05-05T17:46:36.292Z,86.90
2019-05-05T17:49:26.889Z,85.30
2019-05-05T17:52:03.751Z,85.00
2019-05-05T17:54:39.406Z,84.40
2019-05-05T17:57:11.825Z,86.90
2019-05-05T17:59:44.526Z,86.90
2019-05-05T18:02:16.754Z,86.50
2019-05-05T18:04:49.095Z,88.10
2019-05-05T18:07:44.069Z,90.00
2019-05-05T18:10:41.918Z,90.40
2019-05-05T18:13:21.445Z,90.60
2019-05-05T18:15:56.872Z,91.00
2019-05-05T18:18:29.343Z,91.00
2019-05-05T18:21:01.854Z,91.60
2019-05-05T18:23:34.385Z,91.90
2019-05-05T18:26:06.390Z,91.90
2019-05-05T18:28:40.464Z,92.60
2019-05-05T18:31:13.943Z,92.90
2019-05-05T18:33:45.901Z,92.80
2019-05-05T18:36:19.069Z,93.00
2019-05-05T18:38:51.348Z,93.20
2019-05-05T18:41:30.335Z,92.90
2019-05-05T18:44:13.386Z,92.80
2019-05-05T18:46:47.499Z,93.20
2019-05-05T18:49:20.515Z,93.30
2019-05-05T18:51:53.386Z,93.70
2019-05-05T18:54:25.369Z,93.80
2019-05-05T18:56:58.062Z,94.00
2019-05-05T18:59:31.302Z,94.10
2019-05-05T19:02:32.040Z,94.40
2019-05-05T19:05:25.954Z,95.30
2019-05-05T19:08:09.969Z,95.40
2019-05-05T19:10:43.949Z,95.80
2019-05-05T19:13:16.224Z,95.90
2019-05-05T19:15:48.186Z,96.10
2019-05-05T19:18:21.519Z,96.10
2019-05-05T19:21:06.710Z,96.40
2019-05-05T19:23:38.634Z,97.00
2019-05-05T19:26:10.606Z,97.10
2019-05-05T19:28:49.767Z,96.90
2019-05-05T19:31:18.675Z,96.90
2019-05-05T19:33:50.955Z,97.10
2019-05-05T19:36:24.803Z,97.60
2019-05-05T19:38:56.990Z,97.30
2019-05-05T19:41:29.274Z,97.00
2019-05-05T19:44:02.542Z,96.80
2019-05-05T19:46:41.058Z,97.10
2019-05-05T19:49:20.285Z,97.40
2019-05-05T19:51:54.454Z,96.60
2019-05-05T19:54:26.416Z,97.30
2019-05-05T19:56:58.793Z,97.70
2019-05-05T19:59:30.754Z,98.30
2019-05-05T20:02:03.721Z,98.50
2019-05-05T20:04:36.123Z,98.60
2019-05-05T20:07:08.173Z,99.00
2019-05-05T20:09:40.173Z,98.80
2019-05-05T20:12:14.636Z,98.50
2019-05-05T20:14:46.508Z,98.40
2019-05-05T20:17:37.789Z,98.40
2019-05-05T20:20:10.781Z,98.30
2019-05-05T20:22:44.443Z,98.00
2019-05-05T20:25:17.849Z,97.80
2019-05-05T20:27:50.226Z,98.20
2019-05-05T20:30:24.669Z,98.40
2019-05-05T20:33:04.051Z,99.00
2019-05-05T20:35:40.955Z,99.50
2019-05-05T20:38:21.089Z,99.90
2019-05-05T20:41:15.366Z,99.90
2019-05-05T20:43:47.652Z,99.70
2019-05-05T20:46:19.881Z,99.90
2019-05-05T20:48:54.298Z,99.90
2019-05-05T20:51:26.235Z,99.90
2019-05-05T20:53:58.619Z,99.90
2019-05-05T20:56:30.947Z,99.90
2019-05-05T20:59:02.893Z,99.90
2019-05-05T21:01:34.800Z,99.90
2019-05-05T21:04:07.589Z,99.90
2019-05-05T21:06:40.382Z,99.90
2019-05-05T21:09:14.149Z,99.90
2019-05-05T21:11:46.319Z,99.90
2019-05-05T21:14:31.255Z,99.90
2019-05-05T21:16:54.710Z,99.90
2019-05-05T21:19:26.653Z,99.90
2019-05-05T21:22:00.684Z,99.90
2019-05-05T21:24:33.524Z,99.90
2019-05-05T21:27:06.223Z,99.90
2019-05-05T21:29:42.069Z,99.90
2019-05-05T21:32:13.834Z,99.90
2019-05-05T21:34:45.854Z,99.90
2019-05-05T21:37:18.647Z,99.90
2019-05-05T21:39:50.915Z,99.90
2019-05-05T21:42:24.109Z,99.90
2019-05-05T21:44:56.546Z,99.90
2019-05-05T21:47:28.502Z,99.90
2019-05-05T21:50:00.463Z,99.90
2019-05-05T21:52:42.809Z,99.90
2019-05-05T21:55:20.675Z,99.90
2019-05-05T21:58:14.198Z,99.70
2019-05-05T22:01:04.623Z,99.90
2019-05-05T22:03:38.443Z,99.90
2019-05-05T22:06:11.803Z,99.90
2019-05-05T22:08:44.342Z,99.90
2019-05-05T22:11:16.292Z,99.90
2019-05-05T22:13:48.665Z,99.90
2019-05-05T22:16:20.960Z,99.90
2019-05-05T22:18:54.281Z,99.90
2019-05-05T22:21:50.845Z,99.90
2019-05-05T22:24:23.515Z,99.90
2019-05-05T22:26:56.440Z,99.90
2019-05-05T22:29:28.446Z,99.90
2019-05-05T22:32:00.930Z,99.90
2019-05-05T22:34:33.538Z,99.90
2019-05-05T22:37:09.454Z,99.90
2019-05-05T22:39:40.109Z,99.90
2019-05-05T22:42:13.742Z,99.90
2019-05-05T22:44:46.670Z,99.90
2019-05-05T22:47:18.725Z,99.90
2019-05-05T22:49:50.992Z,99.90
2019-05-05T22:52:25.295Z,99.90
2019-05-05T22:54:57.146Z,99.90
2019-05-05T22:57:29.419Z,99.90
2019-05-05T23:00:03.632Z,99.90
2019-05-05T23:02:37.458Z,99.90
2019-05-05T23:05:31.945Z,99.90
2019-05-05T23:08:04.095Z,99.90
2019-05-05T23:10:36.656Z,99.90
2019-05-05T23:13:09.129Z,99.90
2019-05-05T23:15:45.553Z,99.90
2019-05-05T23:18:25.662Z,99.90
2019-05-05T23:21:10.374Z,99.90
2019-05-05T23:23:59.840Z,99.90
2019-05-05T23:26:35.890Z,99.90
2019-05-05T23:29:07.960Z,99.90
2019-05-05T23:31:39.912Z,99.90
2019-05-05T23:34:12.191Z,99.90
2019-05-05T23:36:44.558Z,99.90
2019-05-05T23:39:16.515Z,99.90
2019-05-05T23:41:48.785Z,99.90
2019-05-05T23:44:21.174Z,99.90
2019-05-05T23:46:53.896Z,99.90
2019-05-05T23:49:26.315Z,99.90
2019-05-05T23:51:58.665Z,99.90
2019-05-05T23:54:31.046Z,99.90
2019-05-05T23:57:04.713Z,99.90
2019-05-05T23:59:36.847Z,99.90
